createdAt,value
2023-03-29T00:00:41.459Z,2.00
2023-03-29T00:03:09.228Z,2.00
2023-03-29T00:05:39.378Z,2.00
2023-03-29T00:08:07.496Z,2.00
2023-03-29T00:10:35.371Z,2.00
2023-03-29T00:13:03.103Z,2.00
2023-03-29T00:15:30.381Z,1.90
2023-03-29T00:18:01.353Z,1.90
2023-03-29T00:20:29.136Z,1.80
2023-03-29T00:22:56.497Z,1.80
2023-03-29T00:25:23.708Z,1.80
2023-03-29T00:27:51.215Z,1.80
2023-03-29T00:30:18.490Z,1.80
2023-03-29T00:32:46.205Z,1.80
2023-03-29T00:35:13.750Z,1.70
2023-03-29T00:37:41.462Z,1.70
2023-03-29T00:40:15.581Z,1.70
2023-03-29T00:42:46.329Z,1.60
2023-03-29T00:45:13.703Z,1.60
2023-03-29T00:47:49.734Z,1.60
2023-03-29T00:50:40.315Z,1.60
2023-03-29T00:53:26.385Z,1.60
2023-03-29T00:56:02.580Z,1.50
2023-03-29T00:58:44.347Z,1.60
2023-03-29T01:01:17.617Z,1.60
2023-03-29T01:03:56.749Z,1.50
2023-03-29T01:06:29.127Z,1.50
2023-03-29T01:09:01.186Z,1.40
2023-03-29T01:11:37.267Z,1.40
2023-03-29T01:14:25.131Z,1.40
2023-03-29T01:16:53.481Z,1.40
2023-03-29T01:19:26.599Z,1.30
2023-03-29T01:22:26.150Z,1.30
2023-03-29T01:25:11.587Z,1.30
2023-03-29T01:27:50.167Z,1.40
2023-03-29T01:30:27.318Z,1.30
2023-03-29T01:33:10.359Z,1.30
2023-03-29T01:35:40.595Z,1.30
2023-03-29T01:38:32.214Z,1.30
2023-03-29T01:40:59.469Z,1.20
2023-03-29T01:43:34.826Z,1.20
2023-03-29T01:46:08.280Z,1.20
2023-03-29T01:49:04.322Z,1.20
2023-03-29T01:51:36.242Z,1.20
2023-03-29T01:54:15.910Z,1.10
2023-03-29T01:56:45.849Z,1.00
2023-03-29T01:59:22.780Z,1.10
2023-03-29T02:01:55.499Z,1.10
2023-03-29T02:04:32.173Z,1.10
2023-03-29T02:07:02.559Z,1.10
2023-03-29T02:09:32.610Z,1.10
2023-03-29T02:12:02.282Z,1.10
2023-03-29T02:14:33.145Z,1.10
2023-03-29T02:17:16.704Z,1.10
2023-03-29T02:19:50.231Z,1.00
2023-03-29T02:22:24.521Z,0.90
2023-03-29T02:24:59.321Z,1.00
2023-03-29T02:27:30.705Z,1.00
2023-03-29T02:29:58.556Z,1.00
2023-03-29T02:32:35.436Z,1.00
2023-03-29T02:35:13.988Z,0.90
2023-03-29T02:37:46.331Z,0.90
2023-03-29T02:40:14.711Z,0.90
2023-03-29T02:42:45.584Z,0.90
2023-03-29T02:45:20.025Z,0.90
2023-03-29T02:48:02.087Z,0.90
2023-03-29T02:50:36.429Z,0.90
2023-03-29T02:53:08.960Z,0.90
2023-03-29T02:55:39.131Z,0.90
2023-03-29T02:58:08.542Z,0.90
2023-03-29T03:00:46.870Z,0.90
2023-03-29T03:03:18.457Z,0.90
2023-03-29T03:05:52.997Z,0.90
2023-03-29T03:08:21.865Z,0.90
2023-03-29T03:10:49.420Z,0.90
2023-03-29T03:13:16.685Z,0.90
2023-03-29T03:15:50.581Z,0.90
2023-03-29T03:18:18.455Z,1.00
2023-03-29T03:20:55.611Z,1.00
2023-03-29T03:23:23.035Z,1.00
2023-03-29T03:25:50.803Z,1.00
2023-03-29T03:28:19.962Z,1.00
2023-03-29T03:30:47.115Z,1.00
2023-03-29T03:33:32.862Z,1.00
2023-03-29T03:36:18.843Z,1.00
2023-03-29T03:38:46.555Z,1.00
2023-03-29T03:41:13.753Z,0.90
2023-03-29T03:43:43.073Z,0.90
2023-03-29T03:46:11.288Z,1.00
2023-03-29T03:48:38.527Z,1.00
2023-03-29T03:51:10.534Z,0.90
2023-03-29T03:53:38.114Z,0.90
2023-03-29T03:56:14.740Z,0.90
2023-03-29T03:59:39.448Z,0.90
2023-03-29T04:02:26.953Z,0.90
2023-03-29T04:04:55.321Z,0.90
2023-03-29T04:07:29.694Z,1.00
2023-03-29T04:10:15.906Z,0.90
2023-03-29T04:13:09.793Z,1.00
2023-03-29T04:15:59.454Z,1.00
2023-03-29T04:18:28.648Z,1.00
2023-03-29T04:20:58.517Z,1.00
2023-03-29T04:23:27.063Z,1.00
2023-03-29T04:25:56.689Z,1.00
2023-03-29T04:29:02.574Z,1.10
2023-03-29T04:31:43.002Z,1.10
2023-03-29T04:34:29.005Z,1.10
2023-03-29T04:36:59.116Z,1.10
2023-03-29T04:39:33.181Z,1.10
2023-03-29T04:42:03.988Z,1.00
2023-03-29T04:44:35.438Z,1.10
2023-03-29T04:47:05.782Z,1.10
2023-03-29T04:49:36.163Z,1.10
2023-03-29T04:52:07.641Z,1.10
2023-03-29T04:54:34.930Z,1.10
2023-03-29T04:57:18.938Z,1.10
2023-03-29T04:59:55.901Z,1.10
2023-03-29T05:02:58.858Z,1.10
2023-03-29T05:05:27.717Z,1.10
2023-03-29T05:07:57.624Z,1.10
2023-03-29T05:10:31.434Z,1.20
2023-03-29T05:12:58.789Z,1.20
2023-03-29T05:15:26.980Z,1.20
2023-03-29T05:17:59.123Z,1.20
2023-03-29T05:20:27.316Z,1.20
2023-03-29T05:22:55.656Z,1.20
2023-03-29T05:25:45.467Z,1.20
2023-03-29T05:28:12.965Z,1.20
2023-03-29T05:30:53.534Z,1.30
2023-03-29T05:33:21.624Z,1.20
2023-03-29T05:35:49.988Z,1.30
2023-03-29T05:38:18.051Z,1.30
2023-03-29T05:40:56.443Z,1.30
2023-03-29T05:43:41.137Z,1.40
2023-03-29T05:46:09.022Z,1.40
2023-03-29T05:48:41.760Z,1.40
2023-03-29T05:55:34.776Z,1.50
2023-03-29T05:58:02.448Z,1.50
2023-03-29T06:00:44.174Z,1.50
2023-03-29T06:03:30.058Z,1.50
2023-03-29T06:06:05.468Z,1.50
2023-03-29T06:08:35.343Z,1.60
2023-03-29T06:11:39.327Z,1.60
2023-03-29T06:14:10.003Z,1.60
2023-03-29T06:16:43.581Z,1.70
2023-03-29T06:19:20.031Z,1.70
2023-03-29T06:21:56.286Z,1.70
2023-03-29T06:24:27.362Z,1.70
2023-03-29T06:27:01.884Z,1.70
2023-03-29T06:29:31.814Z,1.80
2023-03-29T06:31:59.394Z,1.80
2023-03-29T06:34:53.336Z,1.90
2023-03-29T06:42:20.734Z,2.00
2023-03-29T06:45:16.264Z,2.00
2023-03-29T06:47:49.796Z,2.10
2023-03-29T06:50:18.554Z,2.10
2023-03-29T06:52:55.492Z,2.10
2023-03-29T06:55:26.903Z,2.20
2023-03-29T06:58:00.306Z,2.20
2023-03-29T07:03:51.626Z,2.30
2023-03-29T07:06:27.982Z,2.30
2023-03-29T07:12:05.842Z,2.40
2023-03-29T07:14:36.358Z,2.50
2023-03-29T07:17:04.460Z,2.50
2023-03-29T07:20:22.329Z,2.60
2023-03-29T07:23:07.023Z,2.60
2023-03-29T07:25:41.925Z,2.70
2023-03-29T07:28:12.116Z,2.70
2023-03-29T07:30:40.503Z,2.70
2023-03-29T07:33:16.033Z,2.80
2023-03-29T07:35:55.422Z,2.80
2023-03-29T07:38:27.266Z,2.90
2023-03-29T07:41:14.468Z,2.90
2023-03-29T07:43:56.342Z,2.90
2023-03-29T07:46:25.715Z,3.00
2023-03-29T07:49:03.162Z,3.00
2023-03-29T07:51:40.323Z,3.00
2023-03-29T07:54:13.785Z,3.10
2023-03-29T07:56:56.053Z,3.10
2023-03-29T07:59:35.435Z,3.20
2023-03-29T08:02:11.513Z,3.20
2023-03-29T08:05:40.778Z,3.30
2023-03-29T08:08:18.622Z,3.40
2023-03-29T08:11:19.253Z,3.50
2023-03-29T08:14:13.443Z,3.60
2023-03-29T08:17:01.013Z,3.60
2023-03-29T08:19:29.252Z,3.70
2023-03-29T08:22:08.274Z,3.70
2023-03-29T08:24:58.821Z,3.70
2023-03-29T08:27:32.440Z,3.70
2023-03-29T08:30:05.106Z,3.80
2023-03-29T08:32:38.191Z,3.90
2023-03-29T08:35:12.742Z,3.90
2023-03-29T08:42:57.092Z,4.00
2023-03-29T08:46:09.460Z,4.10
2023-03-29T08:48:44.363Z,4.20
2023-03-29T08:51:23.364Z,4.20
2023-03-29T08:53:58.073Z,4.30
2023-03-29T08:56:34.440Z,4.30
2023-03-29T08:59:31.432Z,4.40
2023-03-29T09:02:04.671Z,4.40
2023-03-29T09:04:35.786Z,4.50
2023-03-29T09:07:17.130Z,4.50
2023-03-29T09:09:47.402Z,4.60
2023-03-29T09:12:38.339Z,4.70
2023-03-29T09:15:22.354Z,4.70
2023-03-29T09:18:29.658Z,4.80
2023-03-29T09:21:28.333Z,4.80
2023-03-29T09:24:08.991Z,4.90
2023-03-29T09:27:21.745Z,4.90
2023-03-29T09:30:12.611Z,5.00
2023-03-29T09:32:53.938Z,5.00
2023-03-29T09:35:51.016Z,5.00
2023-03-29T09:38:20.480Z,5.10
2023-03-29T09:40:53.552Z,5.10
2023-03-29T09:43:52.735Z,5.10
2023-03-29T09:46:47.736Z,5.20
2023-03-29T09:49:33.443Z,5.20
2023-03-29T09:52:06.949Z,5.30
2023-03-29T09:54:34.563Z,5.30
2023-03-29T09:57:21.242Z,5.40
2023-03-29T09:59:51.422Z,5.40
2023-03-29T10:02:21.281Z,5.40
2023-03-29T10:05:04.086Z,5.50
2023-03-29T10:07:44.875Z,5.50
2023-03-29T10:10:29.434Z,5.50
2023-03-29T10:13:16.772Z,5.60
2023-03-29T10:15:44.143Z,5.60
2023-03-29T10:18:17.093Z,5.70
2023-03-29T10:20:44.433Z,5.70
2023-03-29T10:23:19.068Z,5.70
2023-03-29T10:25:46.568Z,5.80
2023-03-29T10:28:17.928Z,5.80
2023-03-29T10:30:52.847Z,5.80
2023-03-29T10:33:24.250Z,5.90
2023-03-29T10:35:52.243Z,5.90
2023-03-29T10:38:23.072Z,5.90
2023-03-29T10:40:53.282Z,5.90
2023-03-29T10:43:32.878Z,6.00
2023-03-29T10:46:30.548Z,6.00
2023-03-29T10:49:00.460Z,6.10
2023-03-29T10:51:30.363Z,6.10
2023-03-29T10:53:59.256Z,6.20
2023-03-29T10:56:37.264Z,6.20
2023-03-29T10:59:24.592Z,6.10
2023-03-29T11:02:17.166Z,6.20
2023-03-29T11:05:07.687Z,6.20
2023-03-29T11:07:44.298Z,6.30
2023-03-29T11:10:32.801Z,6.30
2023-03-29T11:13:29.003Z,6.40
2023-03-29T11:16:27.399Z,6.40
2023-03-29T11:19:40.912Z,6.50
2023-03-29T11:22:29.341Z,6.50
2023-03-29T11:24:56.572Z,6.50
2023-03-29T11:27:34.782Z,6.50
2023-03-29T11:30:22.453Z,6.50
2023-03-29T11:33:04.531Z,6.50
2023-03-29T11:35:56.370Z,6.60
2023-03-29T11:38:32.600Z,6.60
2023-03-29T11:41:24.741Z,6.60
2023-03-29T11:44:00.477Z,6.70
2023-03-29T11:50:55.481Z,6.80
2023-03-29T11:53:31.432Z,6.80
2023-03-29T11:56:07.508Z,6.80
2023-03-29T11:58:55.985Z,6.90
2023-03-29T12:01:57.710Z,6.90
2023-03-29T12:04:52.053Z,7.00
2023-03-29T12:07:44.023Z,7.10
2023-03-29T12:10:28.633Z,7.30
2023-03-29T12:13:01.142Z,7.40
2023-03-29T12:15:47.167Z,7.50
2023-03-29T12:18:41.132Z,7.50
2023-03-29T12:21:21.456Z,7.60
2023-03-29T12:23:50.902Z,7.80
2023-03-29T12:26:58.470Z,8.00
2023-03-29T12:29:37.770Z,8.10
2023-03-29T12:32:26.809Z,8.30
2023-03-29T12:35:27.931Z,8.50
2023-03-29T12:38:21.179Z,8.60
2023-03-29T12:41:19.254Z,8.70
2023-03-29T12:44:06.901Z,8.80
2023-03-29T12:46:43.286Z,8.80
2023-03-29T12:49:34.385Z,8.90
2023-03-29T12:52:27.733Z,8.90
2023-03-29T12:54:58.027Z,8.90
2023-03-29T12:57:43.718Z,9.00
2023-03-29T13:00:37.177Z,9.00
2023-03-29T13:03:20.694Z,9.20
2023-03-29T13:06:06.443Z,9.30
2023-03-29T13:08:36.130Z,9.20
2023-03-29T13:11:05.371Z,9.10
2023-03-29T13:13:43.806Z,9.00
2023-03-29T13:16:15.083Z,9.10
2023-03-29T13:19:13.978Z,9.10
2023-03-29T13:21:59.740Z,9.10
2023-03-29T13:25:07.818Z,9.10
2023-03-29T13:27:48.300Z,9.10
2023-03-29T13:30:44.268Z,9.10
2023-03-29T13:33:25.650Z,9.20
2023-03-29T13:36:17.796Z,9.20
2023-03-29T13:38:52.745Z,9.40
2023-03-29T13:41:38.876Z,9.40
2023-03-29T13:44:27.304Z,9.30
2023-03-29T13:47:27.627Z,9.30
2023-03-29T13:50:00.555Z,9.30
2023-03-29T13:52:32.716Z,9.30
2023-03-29T13:55:25.306Z,9.40
2023-03-29T13:58:24.830Z,9.50
2023-03-29T14:01:11.668Z,9.50
2023-03-29T14:03:54.715Z,9.70
2023-03-29T14:06:45.841Z,9.70
2023-03-29T14:09:15.526Z,9.80
2023-03-29T14:11:46.015Z,9.80
2023-03-29T14:14:13.760Z,9.80
2023-03-29T14:16:42.279Z,9.80
2023-03-29T14:19:14.724Z,9.80
2023-03-29T14:21:43.424Z,9.90
2023-03-29T14:24:21.907Z,10.00
2023-03-29T14:26:49.237Z,10.00
2023-03-29T14:29:17.969Z,10.10
2023-03-29T14:31:45.725Z,10.10
2023-03-29T14:34:23.347Z,10.20
2023-03-29T14:36:50.833Z,10.30
2023-03-29T14:39:22.077Z,10.30
2023-03-29T14:41:54.997Z,10.30
2023-03-29T14:44:25.153Z,10.40
2023-03-29T14:46:53.416Z,10.40
2023-03-29T14:49:23.134Z,10.40
2023-03-29T14:51:52.030Z,10.40
2023-03-29T14:54:34.411Z,10.40
2023-03-29T14:57:06.715Z,10.30
2023-03-29T14:59:39.178Z,10.30
2023-03-29T15:02:23.884Z,10.30
2023-03-29T15:05:23.700Z,10.40
2023-03-29T15:08:05.594Z,10.40
2023-03-29T15:10:35.625Z,10.40
2023-03-29T15:13:05.170Z,10.40
2023-03-29T15:15:34.864Z,10.40
2023-03-29T15:18:07.819Z,10.50
2023-03-29T15:20:38.867Z,10.60
2023-03-29T15:23:51.041Z,10.60
2023-03-29T15:26:31.148Z,10.70
2023-03-29T15:29:12.254Z,10.60
2023-03-29T15:31:41.960Z,10.50
2023-03-29T15:34:13.378Z,10.40
2023-03-29T15:36:45.554Z,10.50
2023-03-29T15:39:15.483Z,10.50
2023-03-29T15:41:44.198Z,10.50
2023-03-29T15:44:15.100Z,10.50
2023-03-29T15:46:42.461Z,10.50
2023-03-29T15:49:13.825Z,10.50
2023-03-29T15:51:41.524Z,10.50
2023-03-29T15:54:09.333Z,10.50
2023-03-29T15:57:01.619Z,10.50
2023-03-29T15:59:30.360Z,10.50
2023-03-29T16:01:58.924Z,10.50
2023-03-29T16:04:26.937Z,10.40
2023-03-29T16:06:55.737Z,10.30
2023-03-29T16:09:24.171Z,10.20
2023-03-29T16:11:51.789Z,10.20
2023-03-29T16:14:24.405Z,10.10
2023-03-29T16:16:52.942Z,10.10
2023-03-29T16:19:21.424Z,10.00
2023-03-29T16:21:49.496Z,9.80
2023-03-29T16:24:27.947Z,9.90
2023-03-29T16:26:56.586Z,9.90
2023-03-29T16:29:25.413Z,9.90
2023-03-29T16:31:53.903Z,9.90
2023-03-29T16:34:23.088Z,9.90
2023-03-29T16:36:50.881Z,9.80
2023-03-29T16:39:21.744Z,9.90
2023-03-29T16:41:50.464Z,9.90
2023-03-29T16:44:23.838Z,9.90
2023-03-29T16:46:54.462Z,9.90
2023-03-29T16:49:21.870Z,9.90
2023-03-29T16:51:49.292Z,9.90
2023-03-29T16:54:17.482Z,9.90
2023-03-29T16:56:44.975Z,9.80
2023-03-29T16:59:12.414Z,9.80
2023-03-29T17:01:40.853Z,9.80
2023-03-29T17:04:09.632Z,9.70
2023-03-29T17:06:37.424Z,9.70
2023-03-29T17:09:05.322Z,9.70
2023-03-29T17:11:33.073Z,9.70
2023-03-29T17:14:00.506Z,9.70
2023-03-29T17:16:34.273Z,9.70
2023-03-29T17:19:01.612Z,9.60
2023-03-29T17:21:30.162Z,9.60
2023-03-29T17:23:57.729Z,9.50
2023-03-29T17:26:26.613Z,9.50
2023-03-29T17:28:54.348Z,9.50
2023-03-29T17:31:21.719Z,9.40
2023-03-29T17:33:55.372Z,9.40
2023-03-29T17:36:25.960Z,9.40
2023-03-29T17:38:54.794Z,9.40
2023-03-29T17:44:19.784Z,9.30
2023-03-29T17:46:47.467Z,9.30
2023-03-29T17:49:15.864Z,9.30
2023-03-29T17:51:43.542Z,9.30
2023-03-29T17:54:12.303Z,9.20
2023-03-29T17:56:39.811Z,9.20
2023-03-29T17:59:11.565Z,9.10
2023-03-29T18:01:39.548Z,9.10
2023-03-29T18:04:07.759Z,9.00
2023-03-29T18:06:35.696Z,9.00
2023-03-29T18:09:30.722Z,8.90
2023-03-29T18:12:03.701Z,8.90
2023-03-29T18:14:31.907Z,8.80
2023-03-29T18:17:02.610Z,8.80
2023-03-29T18:19:30.343Z,8.80
2023-03-29T18:22:01.228Z,8.80
2023-03-29T18:24:35.060Z,8.70
2023-03-29T18:27:04.640Z,8.60
2023-03-29T18:32:18.461Z,8.60
2023-03-29T18:34:49.844Z,8.50
2023-03-29T18:37:17.800Z,8.40
2023-03-29T18:39:49.379Z,8.40
2023-03-29T18:42:17.206Z,8.30
2023-03-29T18:44:46.900Z,8.20
2023-03-29T18:47:19.473Z,8.10
2023-03-29T18:49:47.517Z,8.00
2023-03-29T18:54:58.010Z,8.00
2023-03-29T18:57:26.533Z,7.80
2023-03-29T18:59:54.642Z,7.80
2023-03-29T19:02:22.459Z,7.70
2023-03-29T19:04:51.592Z,7.60
2023-03-29T19:07:20.820Z,7.60
2023-03-29T19:09:48.686Z,7.50
2023-03-29T19:12:17.059Z,7.30
2023-03-29T19:14:51.794Z,7.20
2023-03-29T19:17:20.294Z,7.20
2023-03-29T19:19:55.029Z,7.10
2023-03-29T19:22:27.181Z,7.10
2023-03-29T19:24:55.899Z,6.90
2023-03-29T19:27:24.504Z,6.90
2023-03-29T19:29:53.274Z,6.80
2023-03-29T19:32:21.745Z,6.80
2023-03-29T19:34:50.086Z,6.70
2023-03-29T19:37:18.430Z,6.70
2023-03-29T19:39:46.276Z,6.50
2023-03-29T19:42:15.267Z,6.40
2023-03-29T19:44:49.639Z,6.30
2023-03-29T19:47:17.666Z,6.30
2023-03-29T19:49:47.154Z,6.40
2023-03-29T19:52:17.093Z,6.30
2023-03-29T19:54:45.178Z,6.20
2023-03-29T19:57:13.140Z,6.20
2023-03-29T19:59:41.256Z,6.20
2023-03-29T20:02:12.684Z,6.10
2023-03-29T20:04:41.031Z,6.00
2023-03-29T20:07:09.131Z,5.90
2023-03-29T20:09:36.860Z,5.90
2023-03-29T20:12:04.944Z,5.80
2023-03-29T20:14:32.923Z,5.80
2023-03-29T20:17:00.355Z,5.70
2023-03-29T20:19:30.135Z,5.70
2023-03-29T20:21:58.091Z,5.60
2023-03-29T20:24:26.322Z,5.60
2023-03-29T20:26:53.704Z,5.50
2023-03-29T20:29:22.002Z,5.50
2023-03-29T20:31:49.658Z,5.50
2023-03-29T20:34:18.424Z,5.50
2023-03-29T20:36:47.173Z,5.40
2023-03-29T20:39:40.868Z,5.30
2023-03-29T20:42:08.188Z,5.20
2023-03-29T20:44:36.228Z,5.20
2023-03-29T20:47:05.091Z,5.20
2023-03-29T20:49:39.621Z,5.20
2023-03-29T20:52:18.623Z,5.00
2023-03-29T20:54:46.000Z,5.00
2023-03-29T20:57:27.132Z,4.90
2023-03-29T21:00:08.661Z,4.90
2023-03-29T21:02:35.888Z,4.90
2023-03-29T21:05:03.848Z,4.90
2023-03-29T21:07:31.196Z,4.90
2023-03-29T21:10:09.384Z,4.90
2023-03-29T21:12:37.234Z,4.80
2023-03-29T21:15:05.612Z,4.70
2023-03-29T21:17:32.846Z,4.70
2023-03-29T21:20:00.310Z,4.70
2023-03-29T21:22:28.252Z,4.60
2023-03-29T21:24:55.889Z,4.50
2023-03-29T21:27:23.145Z,4.50
2023-03-29T21:29:50.554Z,4.30
2023-03-29T21:32:17.828Z,4.30
2023-03-29T21:34:45.511Z,4.30
2023-03-29T21:37:15.194Z,4.30
2023-03-29T21:39:42.677Z,4.20
2023-03-29T21:42:12.968Z,4.10
2023-03-29T21:44:44.662Z,4.10
2023-03-29T21:47:11.727Z,4.10
2023-03-29T21:49:39.799Z,4.10
2023-03-29T21:52:07.492Z,4.00
2023-03-29T21:54:34.717Z,4.00
2023-03-29T21:57:02.050Z,3.90
2023-03-29T21:59:31.898Z,3.80
2023-03-29T22:01:59.273Z,3.80
2023-03-29T22:04:35.946Z,3.90
2023-03-29T22:07:35.673Z,3.90
2023-03-29T22:10:11.702Z,3.80
2023-03-29T22:12:39.652Z,3.80
2023-03-29T22:15:08.700Z,3.80
2023-03-29T22:17:36.145Z,3.80
2023-03-29T22:20:14.132Z,3.70
2023-03-29T22:22:49.849Z,3.70
2023-03-29T22:25:18.898Z,3.70
2023-03-29T22:27:48.026Z,3.60
2023-03-29T22:30:16.511Z,3.70
2023-03-29T22:32:45.595Z,3.60
2023-03-29T22:35:13.055Z,3.60
2023-03-29T22:37:42.076Z,3.50
2023-03-29T22:40:11.162Z,3.50
2023-03-29T22:42:38.378Z,3.30
2023-03-29T22:45:11.938Z,3.30
2023-03-29T22:47:39.340Z,3.30
2023-03-29T22:50:07.424Z,3.40
2023-03-29T22:52:34.729Z,3.40
2023-03-29T22:55:02.306Z,3.40
2023-03-29T22:57:29.882Z,3.40
2023-03-29T22:59:57.269Z,3.30
2023-03-29T23:02:24.686Z,3.40
2023-03-29T23:04:52.206Z,3.30
2023-03-29T23:07:19.547Z,3.30
2023-03-29T23:09:47.118Z,3.30
2023-03-29T23:12:14.475Z,3.40
2023-03-29T23:14:42.991Z,3.40
2023-03-29T23:17:10.436Z,3.40
2023-03-29T23:19:38.260Z,3.30
2023-03-29T23:22:05.608Z,3.30
2023-03-29T23:24:33.529Z,3.40
2023-03-29T23:27:01.476Z,3.40
2023-03-29T23:29:28.836Z,3.40
2023-03-29T23:31:57.703Z,3.40
2023-03-29T23:34:25.366Z,3.40
2023-03-29T23:36:52.719Z,3.50
2023-03-29T23:39:19.906Z,3.50
2023-03-29T23:41:47.437Z,3.40
2023-03-29T23:44:14.876Z,3.40
2023-03-29T23:46:42.328Z,3.40
2023-03-29T23:49:10.692Z,3.40
2023-03-29T23:51:39.267Z,3.50
2023-03-29T23:54:06.776Z,3.50
2023-03-29T23:56:34.570Z,3.50
2023-03-29T23:59:02.007Z,3.50
